CYAT

Attawapiskat Airport

Airport
ICAO code
CYAT
IATA Code
YAT
Summary
ICAO Region
NAM
ICAO Territory
Location

Attawapiskat, Ontario

Serving
Attawapiskat First Nation
Elevation
30 ft
Coordinates
52° 55' 36" N , 82° 25' 50" W
KCC
Metar
Observation
CYAT 280300Z AUTO 32005KT 9SM CLR M09/M09 A2986 RMK SLP116
Station
Attawapiskat Airport
Date/Time
2022-11-28 03:00:00
Wind direction
320°
Wind speed
05 kts
Lowest cloud amount
n/a
Temperature
-9°C
Dew point
-9°C
Humidity
100%
Weather condition
n/a

Description

Regional airport adjacent to the Attawapiskat First Nation, Ontario, Canada.

Climatology

Subarctic climate (Köppen climate classification Dfc) - long, usually very cold winters, and short, cool to mild summers.

Runways

Designator Length Width Surface Rops
6/24 1067 30 GRVL No/No

Airport map

Aerial View

SKYbrary Partners:

Safety knowledge contributed by: